Portada
METAR-TAF:

METAR-TAF

Aeroports :

Pohnpei, Micronèsia

latitud: 06-59N, longitud: 158-12E, altitud: 2 m

Observació

L'informe es va fer fa 44 minuts, a les 06:50 UTC
Vent 3 kt del Nord
Temperatura 27°C
Humitat 89%
Pressió 1010 hPa
Visibilitat: 24.1 km
Núvols disperses a una alçada de 1800 ft
Cel cobert a una alçada de 30000 ft

METAR: PTPN 240650Z 36003KT 15SM SCT018 OVC300 27/25 A2983

Hora: 18:34 (07:34 UTC)

Pronòstic

L'informe es va fer fa 2 hores i 1 minuts, a les 05:33 UTC
Pronòstic vàlid del 24 a les 06 UTC al 25 a les 06 UTC
Vent 4 kt del Est/Sud-Est
Visibilitat: 10 km
Núvols disperses a una alçada de 1400 ft
Cel ennuvolat a una alçada de 10000 ft
xàfecs en les proximitats
Temporalment
l' 24 a les 06 UTC al 24 a les 10 UTC
Cel ennuvolat a una alçada de 1800 ft
Cel cobert a una alçada de 13000 ft

TAF: PTPN 240533Z 2406/2506 12004KT P6SM VCSH SCT014 BKN100 TEMPO 2406/2410 BKN018 OVC130

Observacions i pronòstics meteorològics de més de 4000 aeroports (METAR i TAF).

Les estacions disponibles són els punts grocs i vermells al mapa.

Posi el ratolí al punt desitjat per veure el nom de l'estació.

Feu clic per veure les observacions i els pronòstics meteorològics.

Per canviar el mapa: feu clic els botons verds amb una creu de color negre per apropar; al botó verd amb un guió per allunyar la imatge; o en les fletxes verdes per a mapes adjacents.


METAR-TAF: